Time,TemperatureF,DewpointF,PressureIn,WindDirection,WindDirectionDegrees,WindSpeedMPH,WindSpeedGustMPH,Humidity,HourlyPrecipIn,Conditions,Clouds,dailyrainin,SoftwareType,DateUTC
2013-10-06 00:01:00,54.2,51.9,30.01,North,9,0.0,0.0,92,0.00,,,0.00,WeatherCatV1.15B25,2013-10-06 05:01:00,
2013-10-06 00:06:00,54.2,51.9,30.01,NNE,24,0.0,0.0,92,0.00,,,0.00,WeatherCatV1.15B25,2013-10-06 05:06:00,
2013-10-06 00:11:00,54.2,51.9,30.01,NE,37,0.0,0.0,92,0.00,,,0.00,WeatherCatV1.15B25,2013-10-06 05:11:00,
2013-10-06 00:16:00,54.3,52.3,30.01,NE,34,0.0,0.0,93,0.00,,,0.00,WeatherCatV1.15B25,2013-10-06 05:16:00,
2013-10-06 00:21:00,54.3,52.0,30.01,North,351,0.0,0.0,92,0.00,,,0.00,WeatherCatV1.15B25,2013-10-06 05:21:00,
2013-10-06 00:26:00,54.4,52.4,30.01,North,10,0.0,1.0,93,0.00,,,0.00,WeatherCatV1.15B25,2013-10-06 05:26:00,
2013-10-06 00:31:00,54.4,52.1,30.00,North,10,0.0,0.0,92,0.00,,,0.00,WeatherCatV1.15B25,2013-10-06 05:31:00,
2013-10-06 00:36:00,54.5,52.2,30.00,NNE,18,0.0,0.0,92,0.00,,,0.00,WeatherCatV1.15B25,2013-10-06 05:36:00,
2013-10-06 00:41:00,54.5,52.2,30.00,NNW,336,0.0,0.0,92,0.00,,,0.00,WeatherCatV1.15B25,2013-10-06 05:41:00,
2013-10-06 00:46:00,54.6,52.6,30.00,NNE,32,0.0,0.0,93,0.00,,,0.00,WeatherCatV1.15B25,2013-10-06 05:46:00,
2013-10-06 00:51:00,54.6,52.3,30.00,WNW,302,0.0,0.0,92,0.00,,,0.00,WeatherCatV1.15B25,2013-10-06 05:51:00,
2013-10-06 00:56:00,54.7,52.7,30.00,NW,324,0.0,1.0,93,0.00,,,0.00,WeatherCatV1.15B25,2013-10-06 05:56:00,
2013-10-06 01:01:00,54.7,52.4,30.00,North,0,0.0,3.0,92,0.00,,,0.00,WeatherCatV1.15B25,2013-10-06 06:01:00,
2013-10-06 01:06:00,54.7,52.4,30.00,NNE,19,0.0,4.0,92,0.00,,,0.00,WeatherCatV1.15B25,2013-10-06 06:06:00,
2013-10-06 01:11:00,54.7,52.4,30.00,NNE,20,0.0,0.0,92,0.00,,,0.00,WeatherCatV1.15B25,2013-10-06 06:11:00,
2013-10-06 01:16:00,54.8,52.8,30.00,WNW,294,0.0,1.0,93,0.00,,,0.00,WeatherCatV1.15B25,2013-10-06 06:16:00,
2013-10-06 01:21:00,54.8,52.8,30.00,WNW,298,3.0,4.0,93,0.00,,,0.00,WeatherCatV1.15B25,2013-10-06 06:21:00,
2013-10-06 01:26:00,54.7,52.4,30.00,West,272,0.0,0.0,92,0.00,,,0.00,WeatherCatV1.15B25,2013-10-06 06:26:00,
2013-10-06 01:31:00,54.7,52.4,30.00,NNW,336,0.0,0.0,92,0.00,,,0.00,WeatherCatV1.15B25,2013-10-06 06:31:00,
2013-10-06 01:36:00,54.6,52.6,30.00,NNW,336,0.0,0.0,93,0.00,,,0.00,WeatherCatV1.15B25,2013-10-06 06:36:00,
2013-10-06 01:41:00,54.5,52.5,30.00,North,5,0.0,0.0,93,0.00,,,0.00,WeatherCatV1.15B25,2013-10-06 06:41:00,
2013-10-06 01:46:00,54.4,52.1,30.00,WNW,290,0.0,2.0,92,0.00,,,0.00,WeatherCatV1.15B25,2013-10-06 06:46:00,
2013-10-06 01:51:00,54.3,52.0,30.00,North,5,0.0,0.0,92,0.00,,,0.00,WeatherCatV1.15B25,2013-10-06 06:51:00,
2013-10-06 01:56:00,54.2,51.9,30.00,North,0,0.0,0.0,92,0.00,,,0.00,WeatherCatV1.15B25,2013-10-06 06:56:00,
2013-10-06 02:01:00,54.1,51.8,30.00,NW,317,0.0,0.0,92,0.00,,,0.00,WeatherCatV1.15B25,2013-10-06 07:01:00,
2013-10-06 02:06:00,54.1,51.8,30.00,West,279,0.0,0.0,92,0.00,,,0.00,WeatherCatV1.15B25,2013-10-06 07:06:00,
2013-10-06 02:11:00,54.0,51.7,30.00,NW,325,0.0,0.0,92,0.00,,,0.00,WeatherCatV1.15B25,2013-10-06 07:11:00,
2013-10-06 02:16:00,54.0,52.0,30.00,West,269,0.0,0.0,93,0.00,,,0.00,WeatherCatV1.15B25,2013-10-06 07:16:00,
2013-10-06 02:21:00,54.0,52.0,30.00,West,269,0.0,0.0,93,0.00,,,0.00,WeatherCatV1.15B25,2013-10-06 07:21:00,
2013-10-06 02:26:00,53.9,51.9,30.00,NW,312,0.0,0.0,93,0.00,,,0.00,WeatherCatV1.15B25,2013-10-06 07:26:00,
2013-10-06 02:31:00,53.9,51.9,30.00,NNE,23,0.0,2.0,93,0.00,,,0.00,WeatherCatV1.15B25,2013-10-06 07:31:00,
2013-10-06 02:36:00,53.8,51.8,30.00,NNW,340,0.0,0.0,93,0.00,,,0.00,WeatherCatV1.15B25,2013-10-06 07:36:00,
2013-10-06 02:41:00,53.9,51.9,30.00,North,349,0.0,0.0,93,0.00,,,0.00,WeatherCatV1.15B25,2013-10-06 07:41:00,
2013-10-06 02:46:00,53.9,51.9,29.99,North,355,0.0,0.0,93,0.00,,,0.00,WeatherCatV1.15B25,2013-10-06 07:46:00,
2013-10-06 02:51:00,53.9,51.9,29.99,NW,325,0.0,0.0,93,0.00,,,0.00,WeatherCatV1.15B25,2013-10-06 07:51:00,
2013-10-06 02:56:00,53.9,51.9,29.99,NW,325,0.0,0.0,93,0.00,,,0.00,WeatherCatV1.15B25,2013-10-06 07:56:00,
2013-10-06 03:01:00,53.9,51.9,29.99,NW,325,0.0,0.0,93,0.00,,,0.00,WeatherCatV1.15B25,2013-10-06 08:01:00,
2013-10-06 03:06:00,53.8,51.8,29.99,NW,325,0.0,0.0,93,0.00,,,0.00,WeatherCatV1.15B25,2013-10-06 08:06:00,
2013-10-06 03:11:00,53.7,51.7,29.99,NW,325,0.0,0.0,93,0.00,,,0.00,WeatherCatV1.15B25,2013-10-06 08:11:00,
2013-10-06 03:16:00,53.6,51.6,29.98,NW,325,0.0,0.0,93,0.00,,,0.00,WeatherCatV1.15B25,2013-10-06 08:16:00,
2013-10-06 03:21:00,53.5,51.5,29.98,NW,325,0.0,0.0,93,0.00,,,0.00,WeatherCatV1.15B25,2013-10-06 08:21:00,
2013-10-06 03:26:00,53.5,51.8,29.98,NW,325,0.0,0.0,94,0.00,,,0.00,WeatherCatV1.15B25,2013-10-06 08:26:00,
2013-10-06 03:31:00,53.5,51.8,29.98,NW,325,0.0,0.0,94,0.00,,,0.00,WeatherCatV1.15B25,2013-10-06 08:31:00,
2013-10-06 03:36:00,53.4,51.7,29.98,NW,325,0.0,0.0,94,0.00,,,0.00,WeatherCatV1.15B25,2013-10-06 08:36:00,
2013-10-06 03:41:00,53.3,51.6,29.98,NW,325,0.0,0.0,94,0.00,,,0.00,WeatherCatV1.15B25,2013-10-06 08:41:00,
2013-10-06 03:46:00,53.2,51.2,29.98,NW,325,0.0,0.0,93,0.00,,,0.00,WeatherCatV1.15B25,2013-10-06 08:46:00,
2013-10-06 03:51:00,53.1,51.1,29.98,NW,325,0.0,0.0,93,0.00,,,0.00,WeatherCatV1.15B25,2013-10-06 08:51:00,
2013-10-06 03:56:00,53.0,51.0,29.98,NW,325,0.0,0.0,93,0.00,,,0.00,WeatherCatV1.15B25,2013-10-06 08:56:00,
2013-10-06 04:01:00,53.0,51.3,29.97,NNW,327,0.0,0.0,94,0.00,,,0.00,WeatherCatV1.15B25,2013-10-06 09:01:00,
2013-10-06 04:06:00,53.0,51.3,29.97,NNE,17,0.0,0.0,94,0.00,,,0.00,WeatherCatV1.15B25,2013-10-06 09:06:00,
2013-10-06 04:09:00,53.0,51.3,29.97,NNE,17,0.0,0.0,94,0.00,,,0.00,WeatherCatV1.15B25,2013-10-06 09:09:00,
2013-10-06 04:14:00,53.1,51.4,29.97,NNE,30,0.0,0.0,94,0.00,,,0.00,WeatherCatV1.15B25,2013-10-06 09:14:00,
2013-10-06 04:19:00,53.1,51.7,29.97,NNW,329,0.0,0.0,95,0.00,,,0.00,WeatherCatV1.15B25,2013-10-06 09:19:00,
2013-10-06 04:24:00,53.2,51.8,29.97,NNW,331,0.0,0.0,95,0.00,,,0.00,WeatherCatV1.15B25,2013-10-06 09:24:00,
2013-10-06 04:29:00,53.3,51.9,29.97,NE,54,0.0,1.0,95,0.00,,,0.00,WeatherCatV1.15B25,2013-10-06 09:29:00,
2013-10-06 04:34:00,53.5,52.1,29.97,NW,321,0.0,0.0,95,0.00,,,0.00,WeatherCatV1.15B25,2013-10-06 09:34:00,
2013-10-06 04:39:00,53.6,52.2,29.97,NE,44,0.0,1.0,95,0.00,,,0.00,WeatherCatV1.15B25,2013-10-06 09:39:00,
2013-10-06 04:44:00,53.8,52.4,29.97,North,355,0.0,1.0,95,0.00,,,0.00,WeatherCatV1.15B25,2013-10-06 09:44:00,
2013-10-06 04:49:00,53.9,52.5,29.97,NW,313,0.0,0.0,95,0.00,,,0.00,WeatherCatV1.15B25,2013-10-06 09:49:00,
2013-10-06 04:54:00,54.0,52.6,29.97,NNW,329,0.0,0.0,95,0.00,,,0.00,WeatherCatV1.15B25,2013-10-06 09:54:00,
2013-10-06 04:59:00,54.1,52.4,29.98,NNW,329,0.0,0.0,94,0.00,,,0.00,WeatherCatV1.15B25,2013-10-06 09:59:00,
2013-10-06 05:04:00,54.0,52.3,29.98,NNW,329,0.0,0.0,94,0.00,,,0.00,WeatherCatV1.15B25,2013-10-06 10:04:00,
2013-10-06 05:09:00,53.9,52.2,29.98,NNW,329,0.0,0.0,94,0.00,,,0.00,WeatherCatV1.15B25,2013-10-06 10:09:00,
2013-10-06 05:14:00,53.8,51.8,29.98,NNW,329,0.0,0.0,93,0.00,,,0.00,WeatherCatV1.15B25,2013-10-06 10:14:00,
2013-10-06 05:19:00,53.5,51.5,29.98,NNW,329,0.0,0.0,93,0.00,,,0.00,WeatherCatV1.15B25,2013-10-06 10:19:00,
2013-10-06 05:24:00,53.4,51.4,29.98,NNW,329,0.0,0.0,93,0.00,,,0.00,WeatherCatV1.15B25,2013-10-06 10:24:00,
2013-10-06 05:29:00,53.2,51.2,29.98,NNW,329,0.0,0.0,93,0.00,,,0.00,WeatherCatV1.15B25,2013-10-06 10:29:00,
2013-10-06 05:34:00,53.0,51.0,29.98,NNW,329,0.0,0.0,93,0.00,,,0.00,WeatherCatV1.15B25,2013-10-06 10:34:00,
2013-10-06 05:39:00,52.9,50.9,29.98,North,5,0.0,1.0,93,0.00,,,0.00,WeatherCatV1.15B25,2013-10-06 10:39:00,
2013-10-06 05:44:00,52.8,50.8,29.98,NNE,14,0.0,0.0,93,0.00,,,0.00,WeatherCatV1.15B25,2013-10-06 10:44:00,
2013-10-06 05:49:00,52.8,50.8,29.98,North,5,0.0,1.0,93,0.00,,,0.00,WeatherCatV1.15B25,2013-10-06 10:49:00,
2013-10-06 05:54:00,52.7,50.7,29.98,NE,44,0.0,0.0,93,0.00,,,0.00,WeatherCatV1.15B25,2013-10-06 10:54:00,
2013-10-06 05:59:00,52.7,50.7,29.98,NE,46,0.0,0.0,93,0.00,,,0.00,WeatherCatV1.15B25,2013-10-06 10:59:00,
2013-10-06 06:04:00,52.7,50.4,29.98,NNE,19,0.0,2.0,92,0.00,,,0.00,WeatherCatV1.15B25,2013-10-06 11:04:00,
2013-10-06 06:09:00,52.7,50.4,29.98,NNE,19,0.0,0.0,92,0.00,,,0.00,WeatherCatV1.15B25,2013-10-06 11:09:00,
2013-10-06 06:14:00,52.6,50.3,29.98,NNE,19,0.0,0.0,92,0.00,,,0.00,WeatherCatV1.15B25,2013-10-06 11:14:00,
2013-10-06 06:19:00,52.6,50.3,29.98,NNE,19,0.0,0.0,92,0.00,,,0.00,WeatherCatV1.15B25,2013-10-06 11:19:00,
2013-10-06 06:24:00,52.5,50.2,29.98,NNE,19,0.0,0.0,92,0.00,,,0.00,WeatherCatV1.15B25,2013-10-06 11:24:00,
2013-10-06 06:29:00,52.4,50.1,29.98,NNE,19,0.0,0.0,92,0.00,,,0.00,WeatherCatV1.15B25,2013-10-06 11:29:00,
2013-10-06 06:34:00,52.3,50.0,29.98,NNE,19,0.0,0.0,92,0.00,,,0.00,WeatherCatV1.15B25,2013-10-06 11:34:00,
2013-10-06 06:39:00,52.3,50.0,29.98,NNE,25,0.0,1.0,92,0.00,,,0.00,WeatherCatV1.15B25,2013-10-06 11:39:00,
2013-10-06 06:44:00,52.2,49.9,29.99,NNE,25,0.0,0.0,92,0.00,,,0.00,WeatherCatV1.15B25,2013-10-06 11:44:00,
2013-10-06 06:49:00,52.1,49.8,29.99,NNE,26,0.0,0.0,92,0.00,,,0.00,WeatherCatV1.15B25,2013-10-06 11:49:00,
2013-10-06 06:54:00,52.1,50.1,29.99,West,277,0.0,0.0,93,0.00,,,0.00,WeatherCatV1.15B25,2013-10-06 11:54:00,
2013-10-06 06:59:00,52.1,49.8,30.00,North,0,0.0,0.0,92,0.00,,,0.00,WeatherCatV1.15B25,2013-10-06 11:59:00,
2013-10-06 07:04:00,52.2,49.9,30.00,North,351,0.0,2.0,92,0.00,,,0.00,WeatherCatV1.15B25,2013-10-06 12:04:00,
2013-10-06 07:09:00,52.3,50.0,30.00,NNE,30,0.0,0.0,92,0.00,,,0.00,WeatherCatV1.15B25,2013-10-06 12:09:00,
2013-10-06 07:14:00,52.3,50.0,30.00,NNE,17,0.0,1.0,92,0.00,,,0.01,WeatherCatV1.15B25,2013-10-06 12:14:00,
2013-10-06 07:19:00,52.4,50.4,30.00,NNE,17,0.0,0.0,93,0.00,,,0.01,WeatherCatV1.15B25,2013-10-06 12:19:00,
2013-10-06 07:24:00,52.6,50.9,30.00,North,11,0.0,4.0,94,0.00,,,0.01,WeatherCatV1.15B25,2013-10-06 12:24:00,
2013-10-06 07:29:00,52.9,51.5,30.00,NNE,22,0.0,3.0,95,0.00,,,0.01,WeatherCatV1.15B25,2013-10-06 12:29:00,
2013-10-06 07:34:00,53.3,51.9,30.00,NE,34,0.0,1.0,95,0.00,,,0.01,WeatherCatV1.15B25,2013-10-06 12:34:00,
2013-10-06 07:39:00,53.4,51.7,30.00,NNE,16,0.0,4.0,94,0.00,,,0.01,WeatherCatV1.15B25,2013-10-06 12:39:00,
2013-10-06 07:44:00,53.5,51.5,30.01,ENE,72,0.0,3.0,93,0.00,,,0.01,WeatherCatV1.15B25,2013-10-06 12:44:00,
2013-10-06 07:49:00,53.6,51.3,30.01,North,5,0.0,2.0,92,0.00,,,0.01,WeatherCatV1.15B25,2013-10-06 12:49:00,
2013-10-06 07:54:00,53.7,51.4,30.01,North,5,0.0,1.0,92,0.00,,,0.01,WeatherCatV1.15B25,2013-10-06 12:54:00,
2013-10-06 07:59:00,53.7,51.1,30.01,NNE,26,0.0,6.0,91,0.00,,,0.01,WeatherCatV1.15B25,2013-10-06 12:59:00,
2013-10-06 08:04:00,53.7,51.1,30.01,NNE,17,0.0,0.0,91,0.00,,,0.01,WeatherCatV1.15B25,2013-10-06 13:04:00,
2013-10-06 08:09:00,53.7,50.8,30.01,ENE,66,0.0,1.0,90,0.00,,,0.01,WeatherCatV1.15B25,2013-10-06 13:09:00,
2013-10-06 08:14:00,53.9,50.7,30.01,North,9,0.0,4.0,89,0.00,,,0.01,WeatherCatV1.15B25,2013-10-06 13:14:00,
2013-10-06 08:19:00,54.0,50.5,30.01,NW,313,0.0,4.0,88,0.00,,,0.01,WeatherCatV1.15B25,2013-10-06 13:19:00,
2013-10-06 08:24:00,54.1,50.6,30.01,NNE,17,0.0,0.0,88,0.00,,,0.01,WeatherCatV1.15B25,2013-10-06 13:24:00,
2013-10-06 08:29:00,54.2,50.7,30.01,NNE,15,0.0,4.0,88,0.00,,,0.01,WeatherCatV1.15B25,2013-10-06 13:29:00,
2013-10-06 08:34:00,54.4,50.3,30.01,NNW,327,1.0,7.0,86,0.00,,,0.01,WeatherCatV1.15B25,2013-10-06 13:34:00,
2013-10-06 08:39:00,54.5,50.1,30.01,East,92,0.0,7.0,85,0.00,,,0.01,WeatherCatV1.15B25,2013-10-06 13:39:00,
2013-10-06 08:44:00,54.8,50.1,30.02,WNW,301,0.0,5.0,84,0.00,,,0.01,WeatherCatV1.15B25,2013-10-06 13:44:00,
2013-10-06 08:49:00,55.0,49.9,30.02,NE,51,0.0,9.0,83,0.00,,,0.01,WeatherCatV1.15B25,2013-10-06 13:49:00,
2013-10-06 08:54:00,55.2,50.1,30.02,SSE,168,0.0,3.0,83,0.00,,,0.01,WeatherCatV1.15B25,2013-10-06 13:54:00,
2013-10-06 08:59:00,55.4,50.6,30.03,NW,314,0.0,0.0,84,0.00,,,0.01,WeatherCatV1.15B25,2013-10-06 13:59:00,
2013-10-06 09:04:00,55.7,50.6,30.03,NNE,32,0.0,0.0,83,0.00,,,0.01,WeatherCatV1.15B25,2013-10-06 14:04:00,
2013-10-06 09:09:00,55.9,50.2,30.03,North,351,0.0,5.0,81,0.00,,,0.01,WeatherCatV1.15B25,2013-10-06 14:09:00,
2013-10-06 09:14:00,56.3,49.9,30.03,NNE,17,0.0,7.0,79,0.00,,,0.01,WeatherCatV1.15B25,2013-10-06 14:14:00,
2013-10-06 09:19:00,56.6,50.5,30.03,NNW,345,0.0,6.0,80,0.00,,,0.01,WeatherCatV1.15B25,2013-10-06 14:19:00,
2013-10-06 09:24:00,56.9,50.5,30.03,North,0,0.0,3.0,79,0.00,,,0.01,WeatherCatV1.15B25,2013-10-06 14:24:00,
2013-10-06 09:29:00,57.1,50.6,30.03,North,5,9.0,9.0,79,0.00,,,0.01,WeatherCatV1.15B25,2013-10-06 14:29:00,
2013-10-06 09:34:00,57.4,50.2,30.03,NNW,341,0.0,4.0,77,0.00,,,0.01,WeatherCatV1.15B25,2013-10-06 14:34:00,
2013-10-06 09:39:00,57.7,50.2,30.03,NW,313,0.0,7.0,76,0.00,,,0.01,WeatherCatV1.15B25,2013-10-06 14:39:00,
2013-10-06 09:44:00,58.1,50.6,30.03,NNE,28,0.0,1.0,76,0.00,,,0.01,WeatherCatV1.15B25,2013-10-06 14:44:00,
2013-10-06 09:49:00,58.6,50.0,30.03,NW,308,0.0,7.0,73,0.00,,,0.01,WeatherCatV1.15B25,2013-10-06 14:49:00,
2013-10-06 09:54:00,59.1,50.8,30.03,North,0,0.0,2.0,74,0.00,,,0.01,WeatherCatV1.15B25,2013-10-06 14:54:00,
2013-10-06 09:59:00,59.5,50.1,30.04,NW,315,0.0,4.0,71,0.00,,,0.01,WeatherCatV1.15B25,2013-10-06 14:59:00,
2013-10-06 10:04:00,60.0,50.6,30.04,North,355,0.0,4.0,71,0.00,,,0.01,WeatherCatV1.15B25,2013-10-06 15:04:00,
2013-10-06 10:09:00,60.5,50.3,30.04,North,355,0.0,3.0,69,0.00,,,0.01,WeatherCatV1.15B25,2013-10-06 15:09:00,
2013-10-06 10:14:00,61.0,50.0,30.04,NE,49,0.0,7.0,67,0.00,,,0.01,WeatherCatV1.15B25,2013-10-06 15:14:00,
2013-10-06 10:19:00,61.6,47.1,30.04,NE,56,0.0,10.0,59,0.00,,,0.01,WeatherCatV1.15B25,2013-10-06 15:19:00,
2013-10-06 10:24:00,62.0,48.0,30.04,NNE,32,1.0,4.0,60,0.00,,,0.01,WeatherCatV1.15B25,2013-10-06 15:24:00,
2013-10-06 10:29:00,62.4,47.9,30.04,NNW,329,4.0,7.0,59,0.00,,,0.01,WeatherCatV1.15B25,2013-10-06 15:29:00,
2013-10-06 10:34:00,62.8,48.7,30.04,NW,323,3.0,4.0,60,0.00,,,0.01,WeatherCatV1.15B25,2013-10-06 15:34:00,
2013-10-06 10:39:00,63.3,46.9,30.04,North,0,5.0,10.0,55,0.00,,,0.01,WeatherCatV1.15B25,2013-10-06 15:39:00,
2013-10-06 10:44:00,63.7,47.7,30.04,North,10,3.0,7.0,56,0.00,,,0.01,WeatherCatV1.15B25,2013-10-06 15:44:00,
2013-10-06 10:49:00,64.2,47.2,30.04,NNW,339,6.0,9.0,54,0.00,,,0.01,WeatherCatV1.15B25,2013-10-06 15:49:00,
2013-10-06 10:54:00,64.8,47.3,30.04,NNE,18,5.0,6.0,53,0.00,,,0.01,WeatherCatV1.15B25,2013-10-06 15:54:00,
2013-10-06 10:59:00,65.7,46.5,30.04,NNE,13,3.0,11.0,50,0.00,,,0.01,WeatherCatV1.15B25,2013-10-06 15:59:00,
2013-10-06 11:04:00,66.7,46.9,30.04,NNW,336,2.0,5.0,49,0.00,,,0.01,WeatherCatV1.15B25,2013-10-06 16:04:00,
2013-10-06 11:09:00,67.5,46.6,30.04,WNW,288,0.0,4.0,47,0.00,,,0.01,WeatherCatV1.15B25,2013-10-06 16:09:00,
2013-10-06 11:14:00,68.1,48.2,30.04,NNW,327,0.0,2.0,49,0.00,,,0.01,WeatherCatV1.15B25,2013-10-06 16:14:00,
2013-10-06 11:19:00,68.9,47.3,30.04,NNW,336,2.0,6.0,46,0.00,,,0.01,WeatherCatV1.15B25,2013-10-06 16:19:00,
2013-10-06 11:24:00,69.2,46.9,30.04,NE,55,0.0,5.0,45,0.00,,,0.01,WeatherCatV1.15B25,2013-10-06 16:24:00,
2013-10-06 11:29:00,69.5,47.2,30.04,WNW,291,3.0,8.0,45,0.00,,,0.01,WeatherCatV1.15B25,2013-10-06 16:29:00,
2013-10-06 11:34:00,69.6,46.7,30.04,NNE,16,0.0,6.0,44,0.00,,,0.01,WeatherCatV1.15B25,2013-10-06 16:34:00,
2013-10-06 11:39:00,69.8,48.1,30.04,NW,318,0.0,6.0,46,0.00,,,0.01,WeatherCatV1.15B25,2013-10-06 16:39:00,
2013-10-06 11:44:00,70.2,47.3,30.04,NNE,25,2.0,5.0,44,0.00,,,0.01,WeatherCatV1.15B25,2013-10-06 16:44:00,
2013-10-06 11:49:00,70.5,46.9,30.04,North,355,3.0,5.0,43,0.00,,,0.01,WeatherCatV1.15B25,2013-10-06 16:49:00,
2013-10-06 11:54:00,70.6,47.6,30.04,North,5,5.0,7.0,44,0.00,,,0.01,WeatherCatV1.15B25,2013-10-06 16:54:00,
2013-10-06 11:59:00,70.8,47.2,30.04,NNE,17,3.0,7.0,43,0.00,,,0.01,WeatherCatV1.15B25,2013-10-06 16:59:00,
2013-10-06 12:04:00,71.0,46.1,30.04,North,10,10.0,10.0,41,0.00,,,0.01,WeatherCatV1.15B25,2013-10-06 17:04:00,
2013-10-06 12:09:00,71.3,45.1,30.04,NNE,26,0.0,6.0,39,0.00,,,0.01,WeatherCatV1.15B25,2013-10-06 17:09:00,
2013-10-06 12:14:00,71.5,45.2,30.04,NNE,23,1.0,10.0,39,0.00,,,0.01,WeatherCatV1.15B25,2013-10-06 17:14:00,
2013-10-06 12:19:00,71.7,46.1,30.04,NNW,341,0.0,6.0,40,0.00,,,0.01,WeatherCatV1.15B25,2013-10-06 17:19:00,
2013-10-06 12:24:00,71.9,44.9,30.04,NE,40,3.0,5.0,38,0.00,,,0.01,WeatherCatV1.15B25,2013-10-06 17:24:00,
2013-10-06 12:29:00,72.0,45.7,30.03,North,355,4.0,6.0,39,0.00,,,0.01,WeatherCatV1.15B25,2013-10-06 17:29:00,
2013-10-06 12:34:00,72.3,45.9,30.03,NE,37,3.0,7.0,39,0.00,,,0.01,WeatherCatV1.15B25,2013-10-06 17:34:00,
2013-10-06 12:39:00,72.6,47.5,30.03,North,355,0.0,7.0,41,0.00,,,0.01,WeatherCatV1.15B25,2013-10-06 17:39:00,
2013-10-06 12:44:00,72.9,45.8,30.03,North,11,0.0,11.0,38,0.00,,,0.01,WeatherCatV1.15B25,2013-10-06 17:44:00,
2013-10-06 12:49:00,73.1,45.3,30.03,NNW,346,1.0,10.0,37,0.00,,,0.01,WeatherCatV1.15B25,2013-10-06 17:49:00,
2013-10-06 12:54:00,73.5,44.9,30.03,North,5,0.0,4.0,36,0.00,,,0.01,WeatherCatV1.15B25,2013-10-06 17:54:00,
2013-10-06 12:59:00,73.9,43.7,30.02,NNW,337,0.0,3.0,34,0.00,,,0.01,WeatherCatV1.15B25,2013-10-06 17:59:00,
2013-10-06 13:04:00,74.3,47.0,30.02,NNW,333,0.0,4.0,38,0.00,,,0.01,WeatherCatV1.15B25,2013-10-06 18:04:00,
2013-10-06 13:09:00,74.7,45.2,30.02,NE,35,0.0,7.0,35,0.00,,,0.01,WeatherCatV1.15B25,2013-10-06 18:09:00,
2013-10-06 13:14:00,74.9,44.6,30.02,NE,39,0.0,9.0,34,0.00,,,0.01,WeatherCatV1.15B25,2013-10-06 18:14:00,
2013-10-06 13:19:00,75.2,46.4,30.02,North,0,0.0,4.0,36,0.00,,,0.01,WeatherCatV1.15B25,2013-10-06 18:19:00,
2013-10-06 13:24:00,75.3,47.9,30.02,NE,46,0.0,5.0,38,0.00,,,0.01,WeatherCatV1.15B25,2013-10-06 18:24:00,
2013-10-06 13:29:00,75.6,46.0,30.01,North,355,2.0,2.0,35,0.00,,,0.01,WeatherCatV1.15B25,2013-10-06 18:29:00,
2013-10-06 13:34:00,75.6,44.5,30.01,North,9,6.0,10.0,33,0.00,,,0.01,WeatherCatV1.15B25,2013-10-06 18:34:00,
2013-10-06 13:39:00,75.5,43.6,30.01,North,355,6.0,13.0,32,0.00,,,0.01,WeatherCatV1.15B25,2013-10-06 18:39:00,
2013-10-06 13:44:00,75.6,44.5,30.00,NNW,333,0.0,10.0,33,0.00,,,0.01,WeatherCatV1.15B25,2013-10-06 18:44:00,
2013-10-06 13:49:00,75.6,45.2,30.00,NNE,33,0.0,6.0,34,0.00,,,0.01,WeatherCatV1.15B25,2013-10-06 18:49:00,
2013-10-06 13:54:00,75.8,43.8,30.00,NNE,30,0.0,7.0,32,0.00,,,0.01,WeatherCatV1.15B25,2013-10-06 18:54:00,
2013-10-06 13:59:00,76.0,45.6,29.99,NNE,31,0.0,0.0,34,0.00,,,0.01,WeatherCatV1.15B25,2013-10-06 18:59:00,
2013-10-06 14:04:00,76.1,45.7,29.99,WNW,288,2.0,5.0,34,0.00,,,0.01,WeatherCatV1.15B25,2013-10-06 19:04:00,
2013-10-06 14:09:00,76.3,44.3,29.99,WNW,286,5.0,5.0,32,0.00,,,0.01,WeatherCatV1.15B25,2013-10-06 19:09:00,
2013-10-06 14:14:00,76.6,44.5,29.99,NW,311,4.0,6.0,32,0.00,,,0.01,WeatherCatV1.15B25,2013-10-06 19:14:00,
2013-10-06 14:19:00,76.9,43.1,29.99,NE,40,0.0,4.0,30,0.00,,,0.01,WeatherCatV1.15B25,2013-10-06 19:19:00,
2013-10-06 14:24:00,76.9,43.1,29.99,NNE,32,2.0,6.0,30,0.00,,,0.01,WeatherCatV1.15B25,2013-10-06 19:24:00,
2013-10-06 14:29:00,76.9,43.1,29.98,NW,316,1.0,5.0,30,0.00,,,0.01,WeatherCatV1.15B25,2013-10-06 19:29:00,
2013-10-06 14:34:00,76.9,43.1,29.98,North,10,1.0,10.0,30,0.00,,,0.01,WeatherCatV1.15B25,2013-10-06 19:34:00,
2013-10-06 14:39:00,76.9,44.8,29.98,WNW,284,0.0,3.0,32,0.00,,,0.01,WeatherCatV1.15B25,2013-10-06 19:39:00,
2013-10-06 14:44:00,76.9,44.8,29.97,NE,53,2.0,7.0,32,0.00,,,0.01,WeatherCatV1.15B25,2013-10-06 19:44:00,
2013-10-06 14:49:00,77.3,46.7,29.97,NE,35,0.0,8.0,34,0.00,,,0.01,WeatherCatV1.15B25,2013-10-06 19:49:00,
2013-10-06 14:54:00,77.3,44.3,29.97,NE,38,3.0,7.0,31,0.00,,,0.01,WeatherCatV1.15B25,2013-10-06 19:54:00,
2013-10-06 14:59:00,77.1,42.4,29.97,NW,306,0.0,6.0,29,0.00,,,0.01,WeatherCatV1.15B25,2013-10-06 19:59:00,
2013-10-06 15:04:00,77.0,43.2,29.97,North,9,1.0,5.0,30,0.00,,,0.01,WeatherCatV1.15B25,2013-10-06 20:04:00,
2013-10-06 15:09:00,77.1,44.1,29.97,NW,325,0.0,3.0,31,0.00,,,0.01,WeatherCatV1.15B25,2013-10-06 20:09:00,
2013-10-06 15:14:00,77.0,43.2,29.97,North,355,5.0,7.0,30,0.00,,,0.01,WeatherCatV1.15B25,2013-10-06 20:14:00,
2013-10-06 15:19:00,77.2,45.8,29.97,NW,313,0.0,7.0,33,0.00,,,0.01,WeatherCatV1.15B25,2013-10-06 20:19:00,
2013-10-06 15:24:00,77.1,43.3,29.97,NE,49,0.0,13.0,30,0.00,,,0.01,WeatherCatV1.15B25,2013-10-06 20:24:00,
2013-10-06 15:29:00,77.1,44.1,29.97,NW,321,3.0,4.0,31,0.00,,,0.01,WeatherCatV1.15B25,2013-10-06 20:29:00,
2013-10-06 15:34:00,77.0,44.0,29.97,North,11,0.0,5.0,31,0.00,,,0.01,WeatherCatV1.15B25,2013-10-06 20:34:00,
2013-10-06 15:39:00,77.0,43.2,29.97,NE,53,0.0,10.0,30,0.00,,,0.01,WeatherCatV1.15B25,2013-10-06 20:39:00,
2013-10-06 15:44:00,77.1,44.1,29.97,North,0,2.0,6.0,31,0.00,,,0.01,WeatherCatV1.15B25,2013-10-06 20:44:00,
2013-10-06 15:49:00,77.1,42.4,29.97,ENE,67,5.0,7.0,29,0.00,,,0.01,WeatherCatV1.15B25,2013-10-06 20:49:00,
2013-10-06 15:54:00,77.1,41.5,29.97,NNE,32,0.0,3.0,28,0.00,,,0.01,WeatherCatV1.15B25,2013-10-06 20:54:00,
2013-10-06 15:59:00,77.3,43.4,29.96,North,11,0.0,10.0,30,0.00,,,0.01,WeatherCatV1.15B25,2013-10-06 20:59:00,
2013-10-06 16:04:00,77.3,43.4,29.96,NW,321,6.0,9.0,30,0.00,,,0.01,WeatherCatV1.15B25,2013-10-06 21:04:00,
2013-10-06 16:09:00,77.3,43.4,29.96,NE,45,4.0,10.0,30,0.00,,,0.01,WeatherCatV1.15B25,2013-10-06 21:09:00,
2013-10-06 16:14:00,77.3,42.5,29.96,NW,319,1.0,3.0,29,0.00,,,0.01,WeatherCatV1.15B25,2013-10-06 21:14:00,
2013-10-06 16:19:00,77.3,43.4,29.96,North,5,0.0,6.0,30,0.00,,,0.01,WeatherCatV1.15B25,2013-10-06 21:19:00,
2013-10-06 16:24:00,77.3,43.4,29.96,NE,34,0.0,6.0,30,0.00,,,0.01,WeatherCatV1.15B25,2013-10-06 21:24:00,
2013-10-06 16:29:00,77.4,42.6,29.96,NNW,338,0.0,0.0,29,0.00,,,0.01,WeatherCatV1.15B25,2013-10-06 21:29:00,
2013-10-06 16:34:00,77.4,40.8,29.96,NW,323,0.0,13.0,27,0.00,,,0.01,WeatherCatV1.15B25,2013-10-06 21:34:00,
2013-10-06 16:39:00,77.4,44.4,29.96,WNW,298,0.0,7.0,31,0.00,,,0.01,WeatherCatV1.15B25,2013-10-06 21:39:00,
2013-10-06 16:44:00,77.5,40.9,29.95,NW,323,4.0,4.0,27,0.00,,,0.01,WeatherCatV1.15B25,2013-10-06 21:44:00,
2013-10-06 16:49:00,77.5,42.7,29.95,WNW,296,0.0,4.0,29,0.00,,,0.01,WeatherCatV1.15B25,2013-10-06 21:49:00,
2013-10-06 16:54:00,77.5,42.7,29.95,NNE,24,1.0,6.0,29,0.00,,,0.01,WeatherCatV1.15B25,2013-10-06 21:54:00,
2013-10-06 16:59:00,77.1,42.4,29.95,WSW,247,0.0,4.0,29,0.00,,,0.01,WeatherCatV1.15B25,2013-10-06 21:59:00,
2013-10-06 17:04:00,76.7,41.1,29.95,NW,309,6.0,6.0,28,0.00,,,0.01,WeatherCatV1.15B25,2013-10-06 22:04:00,
2013-10-06 17:09:00,76.4,43.5,29.95,North,355,2.0,4.0,31,0.00,,,0.01,WeatherCatV1.15B25,2013-10-06 22:09:00,
2013-10-06 17:14:00,76.1,41.5,29.95,North,355,3.0,5.0,29,0.00,,,0.01,WeatherCatV1.15B25,2013-10-06 22:14:00,
2013-10-06 17:19:00,75.8,39.4,29.95,West,281,0.0,0.0,27,0.00,,,0.01,WeatherCatV1.15B25,2013-10-06 22:19:00,
2013-10-06 17:24:00,75.5,41.0,29.95,NNW,345,0.0,9.0,29,0.00,,,0.01,WeatherCatV1.15B25,2013-10-06 22:24:00,
2013-10-06 17:29:00,75.4,41.8,29.95,NW,325,0.0,6.0,30,0.00,,,0.01,WeatherCatV1.15B25,2013-10-06 22:29:00,
2013-10-06 17:34:00,75.1,40.7,29.95,ENE,78,0.0,6.0,29,0.00,,,0.01,WeatherCatV1.15B25,2013-10-06 22:34:00,
2013-10-06 17:39:00,74.9,42.2,29.95,NNW,347,0.0,5.0,31,0.00,,,0.01,WeatherCatV1.15B25,2013-10-06 22:39:00,
2013-10-06 17:44:00,74.5,41.0,29.95,NNW,340,2.0,4.0,30,0.00,,,0.01,WeatherCatV1.15B25,2013-10-06 22:44:00,
2013-10-06 17:49:00,74.2,41.6,29.95,NNE,13,0.0,5.0,31,0.00,,,0.01,WeatherCatV1.15B25,2013-10-06 22:49:00,
2013-10-06 17:54:00,74.0,40.6,29.95,North,355,0.0,9.0,30,0.00,,,0.01,WeatherCatV1.15B25,2013-10-06 22:54:00,
2013-10-06 17:59:00,73.7,42.0,29.96,NNE,17,0.0,3.0,32,0.00,,,0.01,WeatherCatV1.15B25,2013-10-06 22:59:00,
2013-10-06 18:04:00,73.4,40.1,29.96,West,277,0.0,0.0,30,0.00,,,0.01,WeatherCatV1.15B25,2013-10-06 23:04:00,
2013-10-06 18:09:00,73.1,39.8,29.96,NE,34,0.0,5.0,30,0.00,,,0.01,WeatherCatV1.15B25,2013-10-06 23:09:00,
2013-10-06 18:14:00,72.9,39.6,29.96,North,355,0.0,9.0,30,0.00,,,0.01,WeatherCatV1.15B25,2013-10-06 23:14:00,
2013-10-06 18:19:00,72.6,38.5,29.96,North,9,3.0,10.0,29,0.00,,,0.01,WeatherCatV1.15B25,2013-10-06 23:19:00,
2013-10-06 18:24:00,72.3,38.3,29.96,NE,49,0.0,0.0,29,0.00,,,0.01,WeatherCatV1.15B25,2013-10-06 23:24:00,
2013-10-06 18:29:00,72.1,38.9,29.96,NNE,20,0.0,0.0,30,0.00,,,0.01,WeatherCatV1.15B25,2013-10-06 23:29:00,
2013-10-06 18:34:00,71.8,39.5,29.96,NW,311,0.0,1.0,31,0.00,,,0.01,WeatherCatV1.15B25,2013-10-06 23:34:00,
2013-10-06 18:39:00,71.5,39.3,29.96,NNW,338,0.0,3.0,31,0.00,,,0.01,WeatherCatV1.15B25,2013-10-06 23:39:00,
2013-10-06 18:44:00,71.3,39.9,29.96,NNE,28,0.0,0.0,32,0.00,,,0.01,WeatherCatV1.15B25,2013-10-06 23:44:00,
2013-10-06 18:49:00,71.0,40.4,29.96,North,350,0.0,0.0,33,0.00,,,0.01,WeatherCatV1.15B25,2013-10-06 23:49:00,
2013-10-06 18:54:00,70.7,40.2,29.96,NNE,28,0.0,1.0,33,0.00,,,0.01,WeatherCatV1.15B25,2013-10-06 23:54:00,
2013-10-06 18:59:00,70.4,39.9,29.96,North,11,0.0,0.0,33,0.00,,,0.01,WeatherCatV1.15B25,2013-10-06 23:59:00,
2013-10-06 19:04:00,70.2,41.3,29.96,NNE,24,0.0,0.0,35,0.00,,,0.01,WeatherCatV1.15B25,2013-10-07 00:04:00,
2013-10-06 19:09:00,69.8,40.9,29.96,NNE,20,0.0,0.0,35,0.00,,,0.01,WeatherCatV1.15B25,2013-10-07 00:09:00,
2013-10-06 19:14:00,69.5,43.4,29.96,NNE,20,0.0,0.0,39,0.00,,,0.01,WeatherCatV1.15B25,2013-10-07 00:14:00,
2013-10-06 19:19:00,69.1,43.8,29.96,NNE,20,0.0,0.0,40,0.00,,,0.01,WeatherCatV1.15B25,2013-10-07 00:19:00,
2013-10-06 19:24:00,68.7,45.3,29.96,NNE,20,0.0,0.0,43,0.00,,,0.01,WeatherCatV1.15B25,2013-10-07 00:24:00,
2013-10-06 19:29:00,68.1,45.4,29.97,NNE,20,0.0,0.0,44,0.00,,,0.01,WeatherCatV1.15B25,2013-10-07 00:29:00,
2013-10-06 19:34:00,67.6,45.5,29.97,NNE,20,0.0,0.0,45,0.00,,,0.01,WeatherCatV1.15B25,2013-10-07 00:34:00,
2013-10-06 19:39:00,67.0,46.1,29.97,NNE,20,0.0,0.0,47,0.00,,,0.01,WeatherCatV1.15B25,2013-10-07 00:39:00,
2013-10-06 19:44:00,66.3,47.1,29.97,NNE,20,0.0,0.0,50,0.00,,,0.01,WeatherCatV1.15B25,2013-10-07 00:44:00,
2013-10-06 19:49:00,65.5,46.9,29.97,NNE,20,0.0,0.0,51,0.00,,,0.01,WeatherCatV1.15B25,2013-10-07 00:49:00,
2013-10-06 19:54:00,64.7,47.7,29.97,NNE,20,0.0,0.0,54,0.00,,,0.01,WeatherCatV1.15B25,2013-10-07 00:54:00,
2013-10-06 19:59:00,64.0,47.0,29.98,NNE,20,0.0,0.0,54,0.00,,,0.01,WeatherCatV1.15B25,2013-10-07 00:59:00,
2013-10-06 20:04:00,63.5,47.5,29.98,NNE,20,0.0,0.0,56,0.00,,,0.01,WeatherCatV1.15B25,2013-10-07 01:04:00,
2013-10-06 20:09:00,63.0,47.1,29.98,NNE,20,0.0,0.0,56,0.00,,,0.01,WeatherCatV1.15B25,2013-10-07 01:09:00,
2013-10-06 20:14:00,62.5,47.5,29.98,NNE,20,0.0,0.0,58,0.00,,,0.01,WeatherCatV1.15B25,2013-10-07 01:14:00,
2013-10-06 20:19:00,62.1,47.1,29.98,NNE,20,0.0,0.0,58,0.00,,,0.01,WeatherCatV1.15B25,2013-10-07 01:19:00,
2013-10-06 20:24:00,61.6,47.6,29.98,NNE,20,0.0,0.0,60,0.00,,,0.01,WeatherCatV1.15B25,2013-10-07 01:24:00,
2013-10-06 20:29:00,61.1,47.1,29.98,NNE,20,0.0,0.0,60,0.00,,,0.01,WeatherCatV1.15B25,2013-10-07 01:29:00,
2013-10-06 20:34:00,60.7,47.2,29.98,NNE,20,0.0,0.0,61,0.00,,,0.01,WeatherCatV1.15B25,2013-10-07 01:34:00,
2013-10-06 20:39:00,60.4,47.7,29.98,NNE,20,0.0,0.0,63,0.00,,,0.01,WeatherCatV1.15B25,2013-10-07 01:39:00,
2013-10-06 20:44:00,60.0,47.8,29.98,NNE,20,0.0,0.0,64,0.00,,,0.01,WeatherCatV1.15B25,2013-10-07 01:44:00,
2013-10-06 20:49:00,59.6,47.8,29.98,NNE,20,0.0,0.0,65,0.00,,,0.01,WeatherCatV1.15B25,2013-10-07 01:49:00,
2013-10-06 20:54:00,59.4,48.0,29.98,NNE,20,0.0,0.0,66,0.00,,,0.01,WeatherCatV1.15B25,2013-10-07 01:54:00,
2013-10-06 20:59:00,59.1,47.3,29.99,NNE,20,0.0,0.0,65,0.00,,,0.01,WeatherCatV1.15B25,2013-10-07 01:59:00,
2013-10-06 21:04:00,58.8,47.5,29.99,NNE,20,0.0,0.0,66,0.00,,,0.01,WeatherCatV1.15B25,2013-10-07 02:04:00,
2013-10-06 21:09:00,58.6,47.7,29.99,NNE,20,0.0,0.0,67,0.00,,,0.01,WeatherCatV1.15B25,2013-10-07 02:09:00,
2013-10-06 21:14:00,58.3,47.8,29.99,NNE,20,0.0,0.0,68,0.00,,,0.01,WeatherCatV1.15B25,2013-10-07 02:14:00,
2013-10-06 21:19:00,58.0,47.9,29.99,NNE,20,0.0,0.0,69,0.00,,,0.01,WeatherCatV1.15B25,2013-10-07 02:19:00,
2013-10-06 21:24:00,57.8,48.1,29.99,NNE,20,0.0,0.0,70,0.00,,,0.01,WeatherCatV1.15B25,2013-10-07 02:24:00,
2013-10-06 21:29:00,57.5,48.2,29.99,NNE,20,0.0,0.0,71,0.00,,,0.01,WeatherCatV1.15B25,2013-10-07 02:29:00,
2013-10-06 21:34:00,57.3,48.3,29.99,NNE,20,0.0,0.0,72,0.00,,,0.01,WeatherCatV1.15B25,2013-10-07 02:34:00,
2013-10-06 21:39:00,57.1,48.2,29.99,NNE,20,0.0,0.0,72,0.00,,,0.01,WeatherCatV1.15B25,2013-10-07 02:39:00,
2013-10-06 21:44:00,56.9,48.3,30.00,NNE,20,0.0,0.0,73,0.00,,,0.01,WeatherCatV1.15B25,2013-10-07 02:44:00,
2013-10-06 21:49:00,56.7,48.1,30.00,NNE,20,0.0,0.0,73,0.00,,,0.01,WeatherCatV1.15B25,2013-10-07 02:49:00,
2013-10-06 21:54:00,56.6,48.4,30.00,NNE,20,0.0,0.0,74,0.00,,,0.01,WeatherCatV1.15B25,2013-10-07 02:54:00,
2013-10-06 21:59:00,56.5,48.7,30.00,NNE,20,0.0,0.0,75,0.00,,,0.01,WeatherCatV1.15B25,2013-10-07 02:59:00,
2013-10-06 22:04:00,56.4,48.6,30.00,NNE,20,0.0,0.0,75,0.00,,,0.01,WeatherCatV1.15B25,2013-10-07 03:04:00,
2013-10-06 22:09:00,56.3,48.8,30.00,NNE,20,0.0,0.0,76,0.00,,,0.01,WeatherCatV1.15B25,2013-10-07 03:09:00,
2013-10-06 22:14:00,56.2,48.7,30.00,NNE,20,0.0,0.0,76,0.00,,,0.01,WeatherCatV1.15B25,2013-10-07 03:14:00,
2013-10-06 22:19:00,56.2,48.7,30.00,NNE,20,0.0,0.0,76,0.00,,,0.01,WeatherCatV1.15B25,2013-10-07 03:19:00,
2013-10-06 22:24:00,56.1,48.3,30.00,NNE,20,0.0,0.0,75,0.00,,,0.01,WeatherCatV1.15B25,2013-10-07 03:24:00,
2013-10-06 22:29:00,56.0,48.5,30.01,NNE,20,0.0,0.0,76,0.00,,,0.01,WeatherCatV1.15B25,2013-10-07 03:29:00,
2013-10-06 22:34:00,56.0,48.5,30.01,NNE,20,0.0,0.0,76,0.00,,,0.01,WeatherCatV1.15B25,2013-10-07 03:34:00,
2013-10-06 22:39:00,55.9,48.8,30.01,NNE,20,0.0,0.0,77,0.00,,,0.01,WeatherCatV1.15B25,2013-10-07 03:39:00,
2013-10-06 22:44:00,55.9,48.4,30.01,NNE,20,0.0,0.0,76,0.00,,,0.01,WeatherCatV1.15B25,2013-10-07 03:44:00,
2013-10-06 22:49:00,55.8,48.3,30.01,NNE,20,0.0,0.0,76,0.00,,,0.01,WeatherCatV1.15B25,2013-10-07 03:49:00,
2013-10-06 22:54:00,55.8,48.3,30.01,NNE,20,0.0,0.0,76,0.00,,,0.01,WeatherCatV1.15B25,2013-10-07 03:54:00,
2013-10-06 22:59:00,55.7,48.3,30.01,NNE,20,0.0,0.0,76,0.00,,,0.01,WeatherCatV1.15B25,2013-10-07 03:59:00,
2013-10-06 23:01:00,55.7,48.3,30.01,NNE,20,0.0,0.0,76,0.00,,,0.01,WeatherCatV1.15B25,2013-10-07 04:01:00,
2013-10-06 23:02:00,55.7,48.3,30.01,NNE,20,0.0,0.0,76,0.00,,,0.01,WeatherCatV1.15B25,2013-10-07 04:02:00,
2013-10-06 23:07:00,55.6,47.8,30.01,NNE,20,0.0,0.0,75,0.00,,,0.01,WeatherCatV1.15B25,2013-10-07 04:07:00,
2013-10-06 23:12:00,55.5,48.1,30.01,NNE,20,0.0,0.0,76,0.00,,,0.01,WeatherCatV1.15B25,2013-10-07 04:12:00,
2013-10-06 23:17:00,55.4,48.0,30.01,NNE,20,0.0,0.0,76,0.00,,,0.01,WeatherCatV1.15B25,2013-10-07 04:17:00,
2013-10-06 23:22:00,55.3,47.9,30.01,NNE,20,0.0,0.0,76,0.00,,,0.01,WeatherCatV1.15B25,2013-10-07 04:22:00,
2013-10-06 23:27:00,55.2,47.8,30.01,NNE,20,0.0,0.0,76,0.00,,,0.01,WeatherCatV1.15B25,2013-10-07 04:27:00,
2013-10-06 23:32:00,55.0,47.6,30.01,NNE,20,0.0,0.0,76,0.00,,,0.01,WeatherCatV1.15B25,2013-10-07 04:32:00,
2013-10-06 23:37:00,54.8,47.0,30.01,NNE,20,0.0,0.0,75,0.00,,,0.01,WeatherCatV1.15B25,2013-10-07 04:37:00,
2013-10-06 23:42:00,54.7,47.3,30.01,NNE,20,0.0,0.0,76,0.00,,,0.01,WeatherCatV1.15B25,2013-10-07 04:42:00,
2013-10-06 23:47:00,54.5,47.4,30.00,NNE,20,0.0,0.0,77,0.00,,,0.01,WeatherCatV1.15B25,2013-10-07 04:47:00,
2013-10-06 23:52:00,54.3,47.6,30.00,NNE,20,0.0,0.0,78,0.00,,,0.01,WeatherCatV1.15B25,2013-10-07 04:52:00,
2013-10-06 23:57:00,54.1,47.0,30.00,NNE,20,0.0,0.0,77,0.00,,,0.01,WeatherCatV1.15B25,2013-10-07 04:57:00,